Terminal Aerodrome Forecast
Issued by NWS Sioux Falls, SD

Home | Current Version | Previous Version | Graphics & Text | Print | Product List | Glossary On
Versions: 1 2 3 4 5 6 7 8 9 10 11 12 13 14 15 16 17 18 19 20 21 22 23 24 25 26 27 28 29 30
000
FTUS43 KFSD 020520
TAFSUX
TAF
KSUX 020520Z 0206/0306 12004KT P6SM SKC
     FM020900 13004KT 6SM BR SCT050
     FM021230 15006KT P6SM SCT060
     FM021500 18011KT P6SM FEW080
     FM021900 19015G22KT P6SM SCT035=

USA.gov is the U.S. government's official web portal to all federal, state and local government web resources and services.